Friday, September 21, 2018, 9:27 PM EDT
Back to Local

KORH, Worcester Regional Airport

Location: Worcester, MA, United States Lat: 42.267
Local Time: 9:27 PM EDT ( 1:27 GMT) Lon: -71.867
Time Zone: US/Eastern Elev: 1010 ft

Show me the last for .
Show Decoded

2018-09-21 21:04 METAR KORH 220104Z 21016G21KT 10SM OVC011 17/16 A2999 RMK AO2 T01720156 =
2018-09-21 20:54 METAR KORH 220054Z 20015G24KT 10SM OVC009 17/16 A2999 RMK AO2 SLP156 T01670156 =
2018-09-21 20:31 METAR KORH 220031Z 20011KT 10SM OVC009 17/15 A2999 RMK AO2 T01670150 =
2018-09-21 19:54 METAR KORH 212354Z 20014G20KT 10SM OVC012 17/15 A3001 RMK AO2 SLP161 T01670150
                 10178 20161 56027 =
2018-09-21 18:54 METAR KORH 212254Z 20013G20KT 10SM OVC013 17/14 A3004 RMK AO2 SLP172 T01670144 =
2018-09-21 18:06 METAR KORH 212206Z 20016G19KT 10SM SCT015 BKN029 OVC043 17/14 A3005 RMK AO2
                 T01670139 =
2018-09-21 17:54 METAR KORH 212154Z 19012KT 10SM SCT017 BKN031 OVC042 17/14 A3005 RMK AO2 SLP177
                 T01670139 =
2018-09-21 16:54 METAR KORH 212054Z 20016G21KT 10SM SCT019 OVC036 17/14 A3009 RMK AO2 SLP189
                 T01720139 58026 =
2018-09-21 16:01 METAR KORH 212001Z 20012G19KT 10SM OVC020 17/13 A3011 =
2018-09-21 15:54 METAR KORH 211954Z 19016KT 10SM SCT022 OVC033 17/13 A3012 RMK AO2 SLP199
                 T01720133 =
2018-09-21 15:03 METAR KORH 211903Z 19012G18KT 10SM SCT022 OVC035 17/13 A3014 RMK AO2 T01720133 =
2018-09-21 14:54 METAR KORH 211854Z 20008KT 10SM BKN022 OVC033 17/13 A3014 RMK AO2 SLP207
                 T01720133 =
2018-09-21 14:04 METAR KORH 211804Z 19011KT 10SM BKN021 OVC037 17/13 A3016 RMK AO2 T01720133 =
2018-09-21 13:54 METAR KORH 211754Z 19010G17KT 10SM SCT021 OVC038 17/13 A3017 RMK AO2 SLP216
                 T01720133 10178 20133 58028 =
2018-09-21 13:38 METAR KORH 211738Z 20012KT 10SM SCT021 OVC038 17/13 A3017 =
2018-09-21 12:54 METAR KORH 211654Z 19010KT 10SM OVC022 17/13 A3020 RMK AO2 SLP226 T01720128 =
2018-09-21 11:54 METAR KORH 211554Z 17011KT 10SM OVC024 17/13 A3022 RMK AO2 SLP235 T01720128 =
2018-09-21 10:54 METAR KORH 211454Z 16010KT 10SM FEW019 OVC026 16/12 A3025 RMK AO2 SLP246
                 T01560122 58017 =
2018-09-21 09:54 METAR KORH 211354Z 17008KT 10SM OVC028 15/12 A3028 RMK AO2 SLP254 T01500122 =
2018-09-21 09:27 METAR KORH 211327Z 16009KT 10SM FEW012 BKN029 OVC050 14/12 A3029 RMK AO2
                 T01440122 =
2018-09-21 08:54 METAR KORH 211254Z 15010KT 10SM OVC033 14/12 A3029 RMK AO2 SLP259 T01390117 =
2018-09-21 08:37 METAR KORH 211237Z 14010KT 10SM OVC030 14/12 A3030 =
2018-09-21 07:54 METAR KORH 211154Z 14010KT 10SM BKN028 OVC040 13/12 A3030 RMK AO2 SLP263
                 T01330117 10133 20128 51002 =
2018-09-21 07:51 METAR KORH 211151Z 15010KT 10SM BKN028 OVC041 13/11 A3030 RMK AO2 =
2018-09-21 06:54 METAR KORH 211054Z AUTO 15007KT 10SM OVC032 13/12 A3030 RMK AO2 SLP263 T01330117
                 =
2018-09-21 05:54 METAR KORH 210954Z AUTO 14005KT 10SM OVC030 13/12 A3030 RMK AO2 SLP261 T01330117
                 =
2018-09-21 05:41 METAR KORH 210941Z AUTO 13006KT 10SM OVC030 13/12 A3029 RMK AO2 T01330117 =
2018-09-21 04:54 METAR KORH 210854Z AUTO 17006KT 10SM OVC029 13/12 A3029 RMK AO2 SLP256 T01330122
                 56004 =
2018-09-21 04:47 METAR KORH 210847Z AUTO 17007KT 10SM OVC029 13/12 A3029 RMK AO2 T01330122 =
2018-09-21 03:54 METAR KORH 210754Z AUTO 13005KT 10SM OVC030 13/12 A3029 RMK AO2 SLP257 T01330117
                 =
2018-09-21 02:54 METAR KORH 210654Z AUTO 12005KT 10SM OVC032 13/12 A3029 RMK AO2 SLP257 T01330117
                 =
2018-09-21 01:54 METAR KORH 210554Z AUTO 12004KT 10SM OVC032 13/12 A3030 RMK AO2 SLP261 T01330122
                 10144 20133 58002 =
2018-09-21 00:54 METAR KORH 210454Z 12005KT 10SM SCT036 BKN110 13/12 A3030 RMK AO2 SLP263
                 T01330122 401830128 =
2018-09-20 23:54 METAR KORH 210354Z 13005KT 10SM OVC038 13/12 A3031 RMK AO2 SLP264 T01330122 =
2018-09-20 22:54 METAR KORH 210254Z 15006KT 10SM SCT010 13/12 A3030 RMK AO2 SLP263 T01330122
                 51009 =
2018-09-20 22:38 METAR KORH 210238Z 14008KT 10SM SCT008 SCT012 13/12 A3030 RMK AO2 T01330122 =
2018-09-20 22:15 METAR KORH 210215Z 13007KT 10SM OVC010 14/12 A3030 RMK AO2 CIG 007V014 T01390122
                 =
2018-09-20 21:54 METAR KORH 210154Z 13006KT 10SM BKN008 OVC013 14/12 A3030 RMK AO2 CIG 007V011
                 SLP263 T01390122 =

Support USWX by starting your Amazon purchase here.